Database: COMPET-N - COOP - 3PL - 4PL - CNDOOM

WAD: Doom | Doom 2 | TNT | Plutonia | AV | HR | Scythe | MM | MM2 | Requiem | CE
Category: speed | nmare | max | nm100s | tyson | pacifist | fast | respawn | nomo | misc | built | all
Highscore: ALL | IWAD | PWAD | Country | Continent

Remove: wad | map | category | player | all
MapPlayerTimeDateFilenameCommentsDL
MAP15S: Dead Zone Secret ExitJim Leonard12.002002-11-17tn15s012.zip - 174
MAP32: Bitter HerbJim Leonard13.002005-08-09rn32-013.zip - 178
MAP04: WormholeJim Leonard14.002005-08-02tn04-014.zip - 213
MAP15: Dead ZoneJim Leonard16.002002-11-17tn15-016.zip - 203
MAP11: Storage FacilityJim Leonard18.002002-11-15tn11-018.zip - 155
MAP11: Storage FacilityJim Leonard19.002002-11-13tn11-019.zip - 159
MAP21: SlayerJim Leonard23.002002-09-24pn21-023.zip - 131
MAP07: CaughtyardJim Leonard24.002006-01-27pn07-024.zip - 169
MAP20: The Forsaken HallJim Leonard25.002001-06-23rn20-025.zip - 99
MAP10: The MansionJim Leonard26.002006-08-28mm10n026.zip - 195
MAP26: ExcoriationJim Leonard26.002001-06-20rn26-026.zip - 117
E2M5: Command CenterJim Leonard29.002002-11-21n2m5-029.zip - 161
MAP31: PharaohJim Leonard29.002002-11-19tn31-029.zip - 148
E3M1: Hell KeepJim Leonard31.002002-12-14n3m1-031.zip - 155
MAP20: The Forsaken HallJim Leonard32.002001-06-22rn20-032.zip - 108
MAP01: System ControlJim Leonard33.002005-07-29tn01-033.zip - 360
MAP31S: Pharaoh Secret ExitJim Leonard33.002002-11-19tn31s033.zip - 201
MAP01: CongoJim Leonard38.002002-09-24pn01-038.zip - 265
MAP31S: Pharaoh Secret ExitJim Leonard38.002001-07-10tn31s038.zip - 138
MAP23: Lunar Mining ProjectJim Leonard40.002003-02-14tn23-040.zip - 155
MAP08: RealmJim Leonard42.002008-03-19pn08-042.zip - 175
MAP01: OutpostJim Leonard42.512018-12-07m201n042.zip - 174
MAP30: The Gateway of HellJim Leonard43.002003-02-22pn30-043.zip - 106
MAP12: CraterJim Leonard43.002002-11-20tn12-043.zip - 198
MAP23: Lunar Mining ProjectJim Leonard43.002002-09-13tn23-043.zip - 162
E2M5S: Command Center Secret ExitJim Leonard44.002003-02-28n2m5s044.zip - 242
MAP17: Processing AreaJim Leonard44.002003-07-06tn17-044.zip - 186
MAP03: InterlockJim Leonard44.002005-12-03mm03n044.zip - 226
MAP24: The Final FrontierJim Leonard48.002003-03-30pn24-048.zip - 195
MAP05: Hells KitchenJim Leonard50.002005-07-18mm05n050.zip - 220
E2M5S: Command Center Secret ExitJim Leonard51.002002-09-22n2m5s051.zip - 165
MAP14: GenesisJim Leonard52.002008-02-16pn14-052.zip - 151
MAP24: The ChasmJim Leonard53.002002-07-28nm24-053.zip - 207
MAP26: BunkerJim Leonard53.002003-01-16pn26-053.zip - 181
MAP23: Barrels O FunJim Leonard54.002003-02-12nm23-054.zip - 241
MAP24: The ChasmJim Leonard54.002002-07-27nm24-054.zip - 160
MAP04: CagedJim Leonard54.002007-03-01pn04-054.zip - 261
MAP01: OutpostJim Leonard54.002003-05-06m201n054.zip - 339
MAP07: PrisonJim Leonard56.002002-09-08tn07-056.zip - 176
MAP23: Barrels O FunJim Leonard57.002002-12-25nm23-057.zip - 176
MAP24: The ChasmJim Leonard57.002002-07-27nm24-057.zip - 152
MAP02: The Feeding PitJim Leonard57.002003-05-12m202n057.zip - 142
MAP01: The TeleporterJim Leonard58.002005-07-17mm01n058.zip - 222
MAP05: Rites of PassageJim Leonard58.002006-09-02m205n058.zip - 213
MAP09: Castle GardensJim Leonard1:00.002008-12-21an09-100.zip - 156
MAP10: The Black GateJim Leonard1:03.002019-06-03rn10-103.zip - 66
E3M9: WarrensJim Leonard1:05.002002-12-14n3m9-105.zip - 221
MAP06: Barons LairJim Leonard1:05.002006-01-28pn06-105.zip - 225
MAP19: Shipping/RespawningJim Leonard1:05.002002-08-13tn19-105.zip - 199
MAP19: Skinny PuppyJim Leonard1:06.002002-09-01rn19-106.zip - 166
MAP12: The FactoryJim Leonard1:08.002008-02-24nm12-108.zip - 199
MAP03: Cargo DepotJim Leonard1:08.002007-02-10an03-108.zip - 235
MAP32: Go 2 ItJim Leonard1:09.002008-04-11pn32-109.zip - 165
MAP19: Shipping/RespawningJim Leonard1:09.002002-08-13tn19-109.zip - 154
MAP29: Odyssey of NoisesJim Leonard1:10.002006-06-14pn29-110.zip - 197
MAP19: Shipping/RespawningJim Leonard1:10.002002-02-13tn19-110.zip - 192
MAP02: The Feeding PitJim Leonard1:13.002002-04-28m202n113.zip - 141
MAP05: Rites of PassageJim Leonard1:13.002003-01-10m205n113.zip - 124
MAP19: Shipping/RespawningJim Leonard1:14.002002-08-05tn19-114.zip - 151
MAP03: AztecJim Leonard1:15.002002-08-04pn03-115.zip - 212
MAP29: Odyssey of NoisesJim Leonard1:16.002003-05-14pn29-116.zip - 124
MAP13: The CryptJim Leonard1:16.002008-02-16pn13-116.zip - 225
MAP20: The Death DomainJim Leonard1:17.002008-02-16pn20-117.zip - 222
MAP32: Go 2 ItJim Leonard1:18.002002-10-03pn32-118.zip - 106
MAP03: Power ControlJim Leonard1:18.002002-09-09tn03-118.zip - 225
MAP17: Processing AreaJim Leonard1:18.002001-08-09tn17-118.zip - 119
E2M6: Halls Of The DamnedJim Leonard1:19.002002-11-23n2m6-119.zip - 155
MAP16: Deepest ReachesJim Leonard1:20.002003-03-16tn16-120.zip - 157
MAP02: Well of SoulsJim Leonard1:22.002002-10-17pn02-122.zip - 148
MAP30: NevermoreJim Leonard1:24.002001-07-10rn30-124.zip - 109
MAP03: AztecJim Leonard1:27.002001-11-20pn03-127.zip - 175
MAP13: Nukage ProcessingJim Leonard1:27.002005-08-09tn13-127.zip - 206
MAP28: HeckJim Leonard1:29.002002-08-22tn28-129.zip - 203
MAP03: AztecJim Leonard1:30.002001-11-20pn03-130.zip - 175
MAP16: Deepest ReachesJim Leonard1:30.002001-09-10tn16-130.zip - 143
MAP06: The PowerstationJim Leonard1:30.002005-07-14mm06n130.zip - 214
MAP11: Rats in the WallsJim Leonard1:30.002007-01-22rn11-130.zip - 206
MAP28: The SewersJim Leonard1:32.002003-02-21pn28-132.zip - 207
MAP16: Deepest ReachesJim Leonard1:36.002001-09-09tn16-136.zip - 132
MAP14: AquaductJim Leonard1:38.002006-01-22mm14n138.zip - 170
MAP04: RatamahattaJim Leonard1:40.342018-12-30m204n140.zip - 114
MAP28: The SewersJim Leonard1:41.002002-08-04pn28-141.zip - 131
MAP17: TenementsJim Leonard1:41.002019-04-28nm17-141.zip - 65
MAP02: Human BBQJim Leonard1:44.002013-07-25tn02-144.zip - 191
MAP05: Rites of PassageJim Leonard1:47.002002-04-29m205n147.zip - 129
MAP13: Nukage ProcessingJim Leonard1:49.002002-09-07tn13-149.zip - 137
MAP03: Power ControlJim Leonard1:51.002001-08-16tn03-151.zip - 172
MAP32: Dances with DemonsJim Leonard1:55.002002-04-12m232n155.zip - 106
MAP09: AbattoireJim Leonard1:58.002005-07-23pn09-158.zip - 133
MAP16: Deepest ReachesJim Leonard2:00.002001-09-07tn16-200.zip - 155
MAP10: RedemptionJim Leonard2:00.002002-09-11es10-200.zip - 189
MAP02: Human BBQJim Leonard2:02.002005-08-01tn02-202.zip - 179
MAP13: Nukage ProcessingJim Leonard2:10.002001-08-02tn13-210.zip - 171
MAP31S: DejaVu Secret ExitJim Leonard2:12.002002-05-01m231n212.zip - 102
MAP07: ShowdownJim Leonard2:15.002008-04-26an07-215.zip - 208
MAP02: The BridgeJim Leonard2:17.002005-12-02mm02n217.zip - 140
MAP11: Halls of InsanityJim Leonard2:18.002006-01-06mm11n218.zip - 139
MAP17: No OneJim Leonard2:19.002007-01-27m217n219.zip - 218
MAP06: The PowerstationJim Leonard2:21.002002-07-16mm06n221.zip - 151
MAP09: Sabbath SewerJim Leonard2:21.002006-12-22m209n221.zip - 194
MAP03: Power ControlJim Leonard2:22.002001-08-01tn03-222.zip - 181
MAP10: RedemptionJim Leonard2:23.002001-10-20tn10-223.zip - 149
MAP18: MillJim Leonard2:29.002002-09-28tn18-229.zip - 186
MAP20: Mountain DepotJim Leonard2:31.002007-01-02mm20n231.zip - 236
MAP03: Poison ProcessingJim Leonard2:31.002014-02-11rs03-231.zip - 231
MAP05: HangerJim Leonard2:33.002002-08-15tn05-233.zip - 199
MAP10: The Black GateJim Leonard2:34.002001-11-15rn10-234.zip - 151
MAP28: Fetals RemainsJim Leonard2:34.002007-02-06rn28-234.zip - 197
MAP31: Doorway to QuakeJim Leonard2:39.002001-09-18rn31-239.zip - 94
MAP04: SeclusionJim Leonard2:39.002007-02-10as04-239.zip - 237
MAP31S: Doorway to Quake Secret ExitJim Leonard2:47.002001-09-18rn31s247.zip - 107
MAP06: Open SeasonJim Leonard2:52.002011-08-21es06-252.zip - 199
MAP14: Steel WorksJim Leonard2:53.002002-03-28tn14-253.zip - 199
MAP10: The Black GateJim Leonard2:57.002001-07-16rn10-257.zip - 142
MAP04: RatamahattaJim Leonard3:09.002018-05-09rs04-309.zip - 78
MAP04: RatamahattaJim Leonard3:09.002018-05-09rs04-309.zip - 68
MAP04: FireworksJim Leonard3:09.002018-05-09rs04-309.zip - 87
MAP18: MillJim Leonard3:18.002002-01-15tn18-318.zip - 157
MAP04: RatamahattaJim Leonard3:18.002003-05-12m204n318.zip - 131
MAP04: FireworksJim Leonard3:32.002013-08-05rs04-332.zip - 197
MAP08: MetalJim Leonard3:33.002011-08-07es08-333.zip - 208
MAP16: Deepest ReachesJim Leonard3:34.002001-07-11tn16-334.zip - 155
MAP31: DejaVuJim Leonard3:38.002002-05-01m231n338.zip - 115
MAP31S: Cyberden Secret ExitJim Leonard3:44.002006-06-11pn31-344.zip - 209
MAP07: Hells GiftJim Leonard3:45.002005-12-04rn07-345.zip - 177
MAP25: Barons DenJim Leonard3:56.002002-08-21tn25-356.zip - 224
MAP21: Twilight LabJim Leonard3:57.002007-01-04mm21n357.zip - 137
MAP08: StigmataJim Leonard3:57.002006-12-22m208n357.zip - 179
MAP32: CaribbeanJim Leonard4:03.002002-09-08tn32-403.zip - 176
MAP29: River StyxJim Leonard4:13.002002-08-11tn29-413.zip - 126
MAP31S: Technology Base Secret ExitJim Leonard4:17.002007-01-15mm31n417.zip - 190
MAP19: MaltraiterJim Leonard4:19.002007-01-14mm19n419.zip - 190
MAP12: KineticsJim Leonard4:20.002007-01-01mm12n420.zip - 202
MAP04: FireworksJim Leonard4:21.002005-12-27rs04-421.zip - 170
MAP12: EntropyJim Leonard4:22.002008-12-21an12-422.zip - 209
MAP26: Between Scattered CorpsesJim Leonard4:32.002007-01-08mm26n432.zip - 192
MAP17: House of ThornJim Leonard4:37.002007-01-03mm17n437.zip - 190
MAP21: SanctuaryJim Leonard4:44.002007-01-29m221n444.zip - 211
MAP26: BallistyxJim Leonard4:45.002002-08-11tn26-445.zip - 208
MAP11: Sewer ShutdownJim Leonard4:59.002007-01-22m211n459.zip - 223
MAP22: RubiconJim Leonard5:00.002011-01-02as22-500.zip - 204
MAP27: Mount PainJim Leonard5:11.002002-08-20tn27-511.zip - 153
MAP25: Barons DenJim Leonard5:12.002002-08-20tn25-512.zip - 160
MAP15S: Karmacoma Secret ExitJim Leonard5:15.002007-01-08mm15n515.zip - 180
MAP05: Core InfectionJim Leonard5:22.002011-01-24hs05-522.zip - 226
MAP26: Base ExposureJim Leonard5:28.002007-01-25m226n528.zip - 141
MAP17: Dens of IniquityJim Leonard5:30.002005-12-26rn17-530.zip - 178
MAP13: The Inmost Dens IIJim Leonard5:33.002007-01-13mm13n533.zip - 210
MAP24: Procrustes ChambersJim Leonard5:46.002001-09-25rn24-546.zip - 168
MAP09: StrongholdJim Leonard5:59.002010-01-17tn09-559.zip - 158
MAP23: HatredJim Leonard6:02.002007-01-21rn23-602.zip - 194
MAP15: KarmacomaJim Leonard6:05.002007-01-08mm15n605.zip - 200
MAP14: A Question of TimeJim Leonard6:07.002011-01-26m214n607.zip - 175
MAP06: Open SeasonJim Leonard6:16.002001-06-08tn06-616.zip - 977
MAP31: Technology BaseJim Leonard6:19.002007-01-15mm31n619.zip - 197
MAP09: Deep Down BelowJim Leonard6:31.002002-06-20rs09-631.zip - 127
MAP08: Beast IslandJim Leonard6:38.002008-12-13an08-638.zip - 223
MAP16: The NephilimJim Leonard6:40.002009-12-24m216s640.zip - 188
MAP32: The Hidden Slime FactoryJim Leonard6:45.002007-01-02mm32n645.zip - 213
MAP09: Deep Down BelowJim Leonard6:46.002001-09-17rn09-646.zip - 126
MAP15: The Devils CoterieJim Leonard6:50.002011-01-15m215n650.zip - 184
MAP12: Militant ReprisalJim Leonard6:53.002002-06-27rn12-653.zip - 178
MAP04: The StandJim Leonard6:54.002006-03-29mm04n654.zip - 218
MAP32: CaribbeanJim Leonard7:02.002001-08-05tn32-702.zip - 131
MAP03: ...And Hell BeneathJim Leonard7:11.002008-12-24m203s711.zip - 223
MAP20: Central ProcessingJim Leonard7:18.002002-08-10tn20-718.zip - 202
MAP03: Poison ProcessingJim Leonard7:19.002001-06-26rn03-719.zip - 155
MAP31S: Killer Colours Secret ExitJim Leonard7:22.002011-01-17as31-722.zip - 205
MAP18: A Dead Mans TownJim Leonard7:23.002007-01-15mm18n723.zip - 199
MAP27: Cursed KingdomJim Leonard7:23.002007-02-05rn27-723.zip - 186
MAP21: Administration CenterJim Leonard7:33.002002-08-23tn21-733.zip - 178
MAP27: Fort HadesJim Leonard7:33.002007-01-20mm27n733.zip - 193
MAP06: TrappedJim Leonard7:33.002010-01-04m206n733.zip - 215
MAP18: RegulateJim Leonard7:41.002009-01-03m218n741.zip - 198
MAP22: ArachnophobiaJim Leonard7:53.002007-10-19rn22-753.zip - 177
MAP07: FrustrationJim Leonard7:59.002007-01-19m207n759.zip - 223
MAP31: Killer ColoursJim Leonard8:03.002011-01-17an31-803.zip - 493
MAP22: The EscapeJim Leonard8:22.002007-01-19mm22n822.zip - 130
MAP12: Militant ReprisalJim Leonard8:33.002001-09-23rn12-833.zip - 123
MAP24: Io LabJim Leonard8:40.002010-12-29m224n840.zip188
MAP10: Toxic TouchJim Leonard8:42.002009-05-12as10-842.zip - 204
MAP05: The CanyonJim Leonard8:44.002019-07-04rn05-844.zip - 167
MAP15S: Last Resort Secret ExitJim Leonard8:54.002007-12-30rn15s854.zip - 183
MAP07: Not That SimpleJim Leonard8:55.002006-12-30mm07n855.zip - 227
MAP06: nataS ot etubirTJim Leonard8:56.002008-04-06rs06-856.zip - 221
MAP18: Base of ThornJim Leonard9:24.002008-04-11rs18-924.zip - 203
MAP13: Town of the DeadJim Leonard10:02.002005-12-23rn131002.zip - 217
MAP05: The CanyonJim Leonard10:04.002006-12-18rn051004.zip - 218
MAP08: The ReactorJim Leonard10:27.002007-10-18rn081027.zip - 207
MAP16: Escape from ChaosJim Leonard10:28.002007-02-05rn161028.zip - 193
MAP19: Alien ResurrectionJim Leonard10:35.002011-01-23as191035.zip - 215
MAP21: Den of the SkullJim Leonard10:50.002001-10-08rn211050.zip - 186
MAP29: DownerJim Leonard10:57.002008-12-20rn291057.zip - 190
MAP21: Administration CenterJim Leonard11:05.002001-08-08tn211105.zip - 137
MAP15: Last ResortJim Leonard11:06.002008-01-03rn151106.zip - 208
ALL: Requiem (MAP01 - MAP30)Jim Leonard11:56.002019-05-2704rn1156.zip - 55
MAP20: Misri HalekJim Leonard13:25.002008-01-10an201325.zip - 196
EP2: TNT Episode 2 (MAP11 - MAP20)Jim Leonard24:41.002002-08-142441tn11.zip - 198
EP3: TNT Episode 3 (MAP21 - MAP30)Jim Leonard32:12.002008-01-133212tn21.zip - 196
Remove: wad | map | category | player | all